Time;durP1;ratioP1;P1;durP2;ratioP2;P2;SDS_P1;SDS_P2;PMS_P1;PMS_P2;Temp;Humidity;BMP_temperature;BMP_pressure;BME280_temperature;BME280_humidity;BME280_pressure;Samples;Min_cycle;Max_cycle;Signal;HPM_P1;HPM_P2
2022/04/17 00:01:33;;;;;;;5.67;2.67;;;7.20;83.40;;;;;;5008472;28;20046;-69
2022/04/17 00:03:59;;;;;;;7.30;2.73;;;7.20;83.50;;;;;;4986734;28;20084;-68
2022/04/17 00:06:24;;;;;;;6.17;2.77;;;7.10;84.20;;;;;;4996833;28;20584;-68
2022/04/17 00:08:50;;;;;;;6.20;3.37;;;7.20;84.40;;;;;;4999847;28;21443;-69
2022/04/17 00:11:16;;;;;;;7.03;3.13;;;7.10;84.40;;;;;;5011813;28;20045;-69
2022/04/17 00:13:45;;;;;;;4.75;2.70;;;7.10;84.50;;;;;;4987025;28;20178;-69
2022/04/17 00:16:11;;;;;;;8.00;3.80;;;7.10;84.10;;;;;;4985270;28;20045;-69
2022/04/17 00:18:37;;;;;;;4.33;2.43;;;7.10;84.70;;;;;;5021097;28;20555;-69
2022/04/17 00:21:03;;;;;;;6.90;2.80;;;7.10;84.50;;;;;;4994028;28;20076;-68
2022/04/17 00:23:29;;;;;;;;;;;7.10;84.60;;;;;;4982831;28;20292;-68
2022/04/17 00:25:55;;;;;;;9.80;3.72;;;7.00;87.60;;;;;;4990288;28;20794;-69
2022/04/17 00:28:21;;;;;;;10.27;3.70;;;7.00;84.70;;;;;;5017582;28;20475;-68
2022/04/17 00:30:46;;;;;;;6.80;3.90;;;7.00;85.20;;;;;;4980700;28;20072;-69
2022/04/17 00:33:12;;;;;;;6.47;3.10;;;6.90;84.90;;;;;;5000219;28;20045;-70
2022/04/17 00:35:38;;;;;;;7.13;3.43;;;6.90;85.50;;;;;;5005502;28;20076;-70
2022/04/17 00:38:04;;;;;;;7.53;2.95;;;6.90;85.90;;;;;;5001594;28;20040;-74
2022/04/17 00:40:30;;;;;;;5.63;3.35;;;6.90;86.50;;;;;;5000848;28;20038;-71
2022/04/17 00:42:59;;;;;;;7.47;3.43;;;6.90;86.90;;;;;;4981923;28;20123;-68
2022/04/17 00:45:25;;;;;;;7.18;2.80;;;6.80;86.40;;;;;;5004735;28;20498;-67
2022/04/17 00:47:50;;;;;;;5.82;2.90;;;6.80;87.10;;;;;;4999608;28;20045;-68
2022/04/17 00:50:16;;;;;;;4.83;3.03;;;6.80;88.20;;;;;;5019296;28;20564;-69
2022/04/17 00:52:43;;;;;;;4.40;2.63;;;6.80;89.30;;;;;;5028837;28;20030;-68
2022/04/17 00:55:09;;;;;;;;;;;6.70;89.30;;;;;;5024106;28;20037;-68
2022/04/17 00:57:35;;;;;;;7.10;3.20;;;6.70;90.80;;;;;;5020711;28;19917;-68
2022/04/17 01:00:01;;;;;;;5.70;3.05;;;6.70;89.90;;;;;;5001466;28;20072;-68
2022/04/17 01:02:26;;;;;;;10.40;3.33;;;6.70;90.10;;;;;;5014767;28;20108;-69
2022/04/17 01:04:52;;;;;;;6.60;3.60;;;6.60;90.30;;;;;;5022168;28;20050;-68
2022/04/17 01:07:24;;;;;;;5.63;3.30;;;6.60;90.30;;;;;;5006710;28;20219;-68
2022/04/17 01:09:51;;;;;;;4.93;2.80;;;6.60;90.60;;;;;;5024576;28;20236;-68
2022/04/17 01:12:17;;;;;;;;;;;6.60;90.90;;;;;;5004488;28;20112;-68
2022/04/17 01:14:43;;;;;;;7.50;2.70;;;6.50;91.90;;;;;;5025252;28;19921;-69
2022/04/17 01:17:10;;;;;;;7.03;2.97;;;6.50;90.60;;;;;;5021713;28;20030;-68
2022/04/17 01:19:37;;;;;;;8.35;3.63;;;6.50;90.70;;;;;;5005809;28;20077;-68
2022/04/17 01:22:04;;;;;;;6.50;3.10;;;6.50;90.90;;;;;;5022625;28;20049;-68
2022/04/17 01:27:15;;;;;;;6.25;3.40;;;6.40;91.00;;;;;;5021235;28;20037;-69
2022/04/17 01:29:40;;;;;;;5.57;3.08;;;6.50;91.00;;;;;;5002763;28;20033;-70
2022/04/17 01:32:08;;;;;;;5.63;3.07;;;6.40;91.10;;;;;;5020062;28;20596;-69
2022/04/17 01:34:35;;;;;;;6.78;3.38;;;6.40;91.20;;;;;;5023432;28;20124;-69
2022/04/17 01:37:02;;;;;;;6.25;3.33;;;6.40;91.40;;;;;;5002749;28;20060;-69
2022/04/17 01:39:29;;;;;;;6.32;3.42;;;6.40;91.50;;;;;;5026265;28;20034;-70
2022/04/17 01:41:55;;;;;;;7.63;3.50;;;6.40;91.40;;;;;;4984488;28;20072;-69
2022/04/17 01:44:22;;;;;;;6.60;3.33;;;6.40;91.40;;;;;;5026469;28;20079;-70
2022/04/17 01:46:48;;;;;;;7.25;3.30;;;6.40;91.70;;;;;;5021088;28;20072;-69
2022/04/17 01:49:15;;;;;;;5.90;3.38;;;6.40;91.60;;;;;;5007952;28;20099;-69
2022/04/17 01:51:41;;;;;;;;;;;6.40;91.50;;;;;;5000182;28;20052;-69
2022/04/17 01:54:12;;;;;;;7.95;3.50;;;6.40;92.60;;;;;;5006222;28;19967;-69
2022/04/17 01:56:39;;;;;;;7.57;4.20;;;6.30;91.20;;;;;;5023808;28;20038;-69
2022/04/17 01:59:06;;;;;;;9.27;4.00;;;6.30;91.30;;;;;;5023720;28;20033;-70
2022/04/17 02:01:33;;;;;;;11.27;4.28;;;6.30;91.40;;;;;;5011091;28;20037;-69
2022/04/17 02:04:00;;;;;;;8.90;4.50;;;6.30;91.70;;;;;;5014689;28;20103;-69
2022/04/17 02:06:26;;;;;;;7.63;4.55;;;6.40;91.80;;;;;;5022729;28;20410;-69
2022/04/17 02:08:51;;;;;;;11.53;4.83;;;6.30;91.70;;;;;;5001026;28;20053;-69
2022/04/17 02:11:21;;;;;;;7.43;4.53;;;6.30;91.70;;;;;;5022459;28;20057;-69
2022/04/17 02:13:51;;;;;;;8.55;4.50;;;6.30;91.90;;;;;;5009718;28;20402;-69
2022/04/17 02:16:17;;;;;;;7.88;4.40;;;6.30;91.80;;;;;;5001439;28;20099;-69
2022/04/17 02:18:47;;;;;;;11.70;4.65;;;6.30;92.10;;;;;;5022989;28;20044;-69
2022/04/17 02:21:16;;;;;;;10.05;4.60;;;6.30;92.40;;;;;;5019436;28;20041;-69
2022/04/17 02:23:43;;;;;;;7.78;4.43;;;6.30;92.40;;;;;;5020319;28;20034;-69
2022/04/17 02:26:09;;;;;;;9.48;4.63;;;6.20;92.50;;;;;;4993036;28;20052;-69
2022/04/17 02:28:36;;;;;;;10.25;4.72;;;6.20;92.70;;;;;;5016012;28;20094;-69
2022/04/17 02:31:03;;;;;;;12.75;4.90;;;6.20;92.80;;;;;;5019381;28;20041;-69
2022/04/17 02:33:29;;;;;;;8.77;4.50;;;6.20;93.10;;;;;;5016480;28;20453;-69
2022/04/17 02:35:55;;;;;;;8.88;3.92;;;6.10;93.20;;;;;;4996313;28;20037;-69
2022/04/17 02:38:21;;;;;;;7.57;3.93;;;6.10;93.30;;;;;;5002295;28;20042;-69
2022/04/17 02:40:46;;;;;;;7.07;4.43;;;6.10;93.40;;;;;;5016317;28;20037;-69
2022/04/17 02:43:12;;;;;;;6.53;3.93;;;6.10;93.60;;;;;;5021872;28;20042;-69
2022/04/17 02:45:37;;;;;;;8.43;5.00;;;6.00;93.90;;;;;;5003565;28;20045;-69
2022/04/17 02:48:04;;;;;;;8.23;4.30;;;6.00;94.00;;;;;;5024067;28;20525;-69
2022/04/17 02:50:30;;;;;;;9.77;4.45;;;6.00;94.30;;;;;;4987842;28;20387;-69
2022/04/17 02:52:56;;;;;;;9.00;4.90;;;6.00;94.50;;;;;;5024831;28;20045;-69
2022/04/17 02:55:21;;;;;;;11.10;4.90;;;5.90;95.20;;;;;;4998141;28;20040;-69
2022/04/17 02:57:48;;;;;;;9.70;4.87;;;5.90;94.90;;;;;;5003610;28;20172;-69
2022/04/17 03:00:15;;;;;;;7.95;4.25;;;5.90;94.90;;;;;;5015336;28;20067;-69
2022/04/17 03:05:36;;;;;;;7.55;4.25;;;5.80;95.20;;;;;;5008442;28;20073;-69
2022/04/17 03:08:07;;;;;;;7.07;4.28;;;5.80;95.50;;;;;;4971955;28;20042;-69
2022/04/17 03:10:33;;;;;;;10.48;4.90;;;5.80;95.60;;;;;;5019084;28;20298;-69
2022/04/17 03:12:59;;;;;;;8.77;4.75;;;5.80;95.70;;;;;;5020470;28;20048;-69
2022/04/17 03:15:25;;;;;;;7.57;4.47;;;5.80;96.10;;;;;;5019651;28;20466;-69
2022/04/17 03:17:53;;;;;;;7.80;5.10;;;5.70;96.20;;;;;;5002376;28;20050;-69
2022/04/17 03:20:19;;;;;;;9.45;4.57;;;5.70;96.70;;;;;;5000411;28;20045;-69
2022/04/17 03:22:45;;;;;;;9.07;4.30;;;5.60;97.00;;;;;;4991107;28;20083;-69
2022/04/17 03:25:11;;;;;;;7.77;4.60;;;5.60;97.10;;;;;;5002682;28;20502;-69
2022/04/17 03:27:37;;;;;;;8.27;4.68;;;5.60;97.40;;;;;;5016890;28;20091;-69
2022/04/17 03:30:04;;;;;;;9.13;4.83;;;5.60;97.50;;;;;;4999848;28;20049;-69
2022/04/17 03:32:29;;;;;;;9.27;5.20;;;5.60;97.70;;;;;;5003472;28;20375;-69
2022/04/17 03:34:55;;;;;;;8.13;4.70;;;5.50;97.90;;;;;;4995565;28;20095;-69
2022/04/17 03:37:20;;;;;;;10.30;4.50;;;5.50;98.00;;;;;;5014353;28;20098;-69
2022/04/17 03:39:48;;;;;;;9.63;5.10;;;5.50;98.40;;;;;;5019161;28;20242;-69
2022/04/17 03:42:14;;;;;;;9.95;5.57;;;5.50;98.60;;;;;;4999370;28;20061;-69
2022/04/17 03:44:40;;;;;;;8.88;4.65;;;5.40;98.80;;;;;;4981809;28;20479;-69
2022/04/17 03:47:06;;;;;;;9.27;4.80;;;5.40;99.30;;;;;;5012378;28;20128;-69
2022/04/17 03:49:32;;;;;;;8.27;4.57;;;5.40;99.50;;;;;;5006578;28;20549;-69
2022/04/17 04:03:42;;;;;;;7.60;5.03;;;5.20;99.90;;;;;;5041526;22;20051;-68
2022/04/17 04:06:08;;;;;;;11.03;4.83;;;5.30;99.50;;;;;;5049130;28;20029;-69
2022/04/17 04:08:33;;;;;;;8.10;5.10;;;5.30;99.40;;;;;;5020721;28;20052;-69
2022/04/17 04:10:59;;;;;;;9.50;4.93;;;5.30;99.70;;;;;;5034812;28;20554;-67
2022/04/17 04:13:25;;;;;;;9.07;5.00;;;5.30;99.70;;;;;;5027087;28;20041;-68
2022/04/17 04:15:51;;;;;;;9.30;5.25;;;5.30;99.70;;;;;;5021609;28;20452;-68
2022/04/17 04:18:16;;;;;;;9.67;5.10;;;5.30;99.90;;;;;;5031956;28;20127;-68
2022/04/17 04:20:44;;;;;;;8.13;4.85;;;5.20;99.90;;;;;;5043652;28;20112;-68
2022/04/17 04:23:10;;;;;;;9.30;4.90;;;5.30;99.90;;;;;;5000836;28;20140;-68
2022/04/17 04:25:36;;;;;;;10.30;5.10;;;5.30;99.90;;;;;;5022264;28;20115;-67
2022/04/17 04:30:45;;;;;;;9.48;4.13;;;5.20;99.90;;;;;;5040365;28;20045;-68
2022/04/17 04:33:11;;;;;;;9.73;5.30;;;5.20;99.90;;;;;;5045120;28;20460;-68
2022/04/17 04:35:37;;;;;;;8.13;4.97;;;5.20;99.90;;;;;;5039811;28;20484;-68
2022/04/17 04:38:02;;;;;;;10.23;5.65;;;5.20;99.90;;;;;;5006417;28;20123;-67
2022/04/17 04:40:29;;;;;;;9.53;5.43;;;5.20;99.90;;;;;;5003248;28;20147;-68
2022/04/17 04:43:01;;;;;;;9.27;5.05;;;5.20;99.90;;;;;;5040882;28;20120;-69
2022/04/17 04:48:13;;;;;;;11.70;5.63;;;5.20;99.90;;;;;;5043041;28;20095;-68
2022/04/17 04:50:38;;;;;;;8.32;5.15;;;5.20;99.90;;;;;;5047382;28;20037;-68
2022/04/17 04:53:06;;;;;;;13.73;5.33;;;5.20;99.90;;;;;;5040209;28;20129;-69
2022/04/17 04:55:32;;;;;;;8.98;4.68;;;5.20;99.90;;;;;;5032393;28;20151;-68
2022/04/17 04:57:57;;;;;;;10.37;5.93;;;5.20;99.90;;;;;;5043119;28;20128;-68
2022/04/17 05:00:23;;;;;;;8.90;4.67;;;5.20;99.90;;;;;;5037786;28;20048;-67
2022/04/17 05:02:49;;;;;;;9.07;5.53;;;5.20;99.90;;;;;;5016753;28;20060;-68
2022/04/17 05:05:14;;;;;;;9.63;5.00;;;5.30;99.90;;;;;;5037461;28;20351;-68
2022/04/17 05:07:40;;;;;;;7.93;5.27;;;5.20;99.90;;;;;;5019965;28;20045;-68
2022/04/17 05:10:06;;;;;;;13.03;5.70;;;5.20;99.90;;;;;;5018166;28;20123;-68
2022/04/17 05:12:32;;;;;;;;;;;5.30;99.90;;;;;;5033468;28;20584;-67
2022/04/17 05:14:58;;;;;;;9.93;5.45;;;5.30;99.90;;;;;;5047464;28;20828;-67
2022/04/17 05:17:24;;;;;;;12.43;5.80;;;5.30;99.90;;;;;;5014610;28;20037;-68
2022/04/17 05:19:50;;;;;;;9.53;5.20;;;5.30;99.90;;;;;;5038854;28;20303;-68
2022/04/17 05:22:16;;;;;;;11.70;5.40;;;5.30;99.90;;;;;;5039381;28;20132;-68
2022/04/17 05:24:46;;;;;;;11.30;6.50;;;5.40;99.90;;;;;;5018516;28;20123;-68
2022/04/17 05:27:12;;;;;;;11.15;5.35;;;5.40;99.90;;;;;;5045744;28;20044;-68
2022/04/17 05:29:39;;;;;;;12.02;5.38;;;5.40;99.90;;;;;;5028507;28;20160;-68
2022/04/17 05:32:05;;;;;;;12.32;5.60;;;5.40;99.90;;;;;;5036906;28;20487;-68
2022/04/17 05:34:31;;;;;;;9.27;5.32;;;5.50;99.90;;;;;;5001641;28;20044;-68
2022/04/17 05:36:56;;;;;;;11.23;6.43;;;5.50;99.90;;;;;;5023720;28;20441;-67
2022/04/17 05:39:22;;;;;;;12.53;6.53;;;5.60;99.90;;;;;;5048848;28;20720;-68
2022/04/17 05:41:48;;;;;;;12.13;5.87;;;5.60;99.90;;;;;;5038781;28;20438;-68
2022/04/17 05:44:14;;;;;;;10.63;5.80;;;5.60;99.90;;;;;;5029579;28;20045;-68
2022/04/17 05:46:41;;;;;;;10.05;5.75;;;5.70;99.90;;;;;;5021167;28;20609;-68
2022/04/17 05:49:07;;;;;;;10.68;5.55;;;5.70;99.90;;;;;;5007491;28;20105;-64
2022/04/17 05:51:34;;;;;;;10.40;5.68;;;5.80;99.90;;;;;;5039199;28;20133;-65
2022/04/17 05:54:01;;;;;;;11.35;5.55;;;5.80;99.90;;;;;;5035548;28;20039;-67
2022/04/17 05:56:28;;;;;;;8.95;5.15;;;5.90;99.90;;;;;;5006871;28;20052;-67
2022/04/17 05:58:53;;;;;;;9.45;5.43;;;5.90;99.90;;;;;;5041535;28;20130;-67
2022/04/17 06:01:19;;;;;;;9.50;5.67;;;6.00;99.90;;;;;;5020485;28;20053;-66
2022/04/17 06:03:45;;;;;;;11.50;5.97;;;6.00;99.90;;;;;;5044977;28;20493;-68
2022/04/17 06:06:11;;;;;;;11.77;5.50;;;6.10;99.90;;;;;;5027673;28;20076;-67
2022/04/17 06:08:37;;;;;;;11.10;5.73;;;6.10;99.90;;;;;;5028093;28;20123;-67
2022/04/17 06:11:05;;;;;;;10.47;6.10;;;6.20;99.90;;;;;;5034586;28;20115;-67
2022/04/17 06:13:30;;;;;;;10.38;5.90;;;6.20;99.90;;;;;;5021320;28;20308;-66
2022/04/17 06:15:56;;;;;;;9.67;5.57;;;6.30;99.90;;;;;;5035139;28;20119;-68
2022/04/17 06:18:21;;;;;;;9.73;5.73;;;6.30;99.90;;;;;;4999546;28;20045;-67
2022/04/17 06:20:47;;;;;;;10.77;5.00;;;6.40;99.90;;;;;;5025939;28;20112;-67
2022/04/17 06:23:13;;;;;;;12.30;6.13;;;6.50;99.90;;;;;;5044362;28;20423;-66
2022/04/17 06:25:38;;;;;;;12.47;5.60;;;6.50;99.90;;;;;;5011146;28;20046;-66
2022/04/17 06:28:04;;;;;;;9.77;5.37;;;6.60;99.70;;;;;;5036371;28;20382;-67
2022/04/17 06:30:30;;;;;;;12.33;5.27;;;6.60;99.60;;;;;;5019081;28;20041;-67
2022/04/17 06:32:55;;;;;;;12.13;6.27;;;6.70;99.30;;;;;;5048194;28;20307;-67
2022/04/17 06:35:21;;;;;;;9.73;5.43;;;6.70;99.10;;;;;;5017755;28;20128;-66
2022/04/17 06:37:55;;;;;;;11.57;6.57;;;6.80;99.10;;;;;;5031097;28;20036;-68
2022/04/17 06:40:28;;;;;;;10.00;5.35;;;6.90;99.10;;;;;;5024769;28;20051;-67
2022/04/17 06:42:58;;;;;;;9.27;5.47;;;6.90;99.50;;;;;;5016823;28;20037;-68
2022/04/17 06:45:25;;;;;;;11.05;5.88;;;7.00;98.50;;;;;;5038677;28;20252;-65
2022/04/17 06:47:50;;;;;;;10.82;6.18;;;7.00;98.30;;;;;;5034963;28;20116;-67
2022/04/17 06:50:20;;;;;;;11.00;5.57;;;7.10;98.40;;;;;;5042520;28;20068;-66
2022/04/17 06:52:46;;;;;;;12.88;6.72;;;7.10;98.00;;;;;;5035623;28;20302;-67
2022/04/17 06:55:12;;;;;;;10.93;5.73;;;7.20;98.00;;;;;;5020189;28;20068;-66
2022/04/17 06:57:47;;;;;;;11.73;5.55;;;7.30;97.90;;;;;;5043862;28;20127;-66
2022/04/17 07:00:15;;;;;;;8.63;5.28;;;7.30;98.20;;;;;;5024377;28;20044;-65
2022/04/17 07:02:42;;;;;;;12.77;6.00;;;7.40;98.00;;;;;;5045275;28;20036;-66
2022/04/17 07:05:08;;;;;;;11.02;5.22;;;7.50;97.90;;;;;;5040402;28;20159;-68
2022/04/17 07:07:34;;;;;;;;;;;7.50;98.00;;;;;;5013099;28;20149;-67
2022/04/17 07:10:01;;;;;;;8.68;5.22;;;7.60;98.80;;;;;;5036777;28;20401;-66
2022/04/17 07:12:29;;;;;;;13.40;6.22;;;7.70;97.60;;;;;;5028986;28;20040;-67
2022/04/17 07:14:54;;;;;;;11.65;5.90;;;7.70;97.30;;;;;;5019731;28;20052;-67
2022/04/17 07:17:20;;;;;;;8.77;5.20;;;7.80;97.30;;;;;;5034573;28;20056;-67
2022/04/17 07:19:48;;;;;;;9.73;5.60;;;7.90;97.00;;;;;;5045578;28;20029;-65
2022/04/17 07:22:14;;;;;;;14.07;6.20;;;8.00;96.80;;;;;;5021930;28;20045;-67
2022/04/17 07:24:43;;;;;;;8.97;5.80;;;8.10;96.50;;;;;;5020179;28;20060;-67
2022/04/17 07:27:11;;;;;;;10.70;6.50;;;8.10;96.40;;;;;;5036215;28;20124;-67
2022/04/17 07:29:38;;;;;;;11.15;5.85;;;8.20;96.30;;;;;;5044784;28;20052;-68
2022/04/17 07:32:04;;;;;;;10.48;5.90;;;8.30;95.20;;;;;;5013281;28;20045;-67
2022/04/17 07:34:29;;;;;;;10.07;5.93;;;8.40;94.90;;;;;;5023381;28;20056;-67
2022/04/17 07:36:55;;;;;;;9.37;5.70;;;8.50;94.60;;;;;;5038010;28;20055;-66
2022/04/17 07:39:22;;;;;;;10.07;5.97;;;8.60;94.20;;;;;;5027354;28;20149;-67
2022/04/17 07:41:48;;;;;;;9.77;5.53;;;8.60;94.50;;;;;;5030947;28;20045;-67
2022/04/17 07:44:14;;;;;;;10.32;6.15;;;8.70;94.30;;;;;;5025358;28;20090;-67
2022/04/17 07:46:42;;;;;;;10.38;5.40;;;8.80;94.10;;;;;;5021607;28;20390;-67
2022/04/17 07:49:08;;;;;;;9.35;5.28;;;8.90;93.60;;;;;;5026351;28;20052;-67
2022/04/17 07:51:34;;;;;;;12.43;5.47;;;9.00;93.10;;;;;;5030404;28;20397;-69
2022/04/17 07:54:00;;;;;;;10.48;5.18;;;9.10;92.80;;;;;;5034389;28;20508;-66
2022/04/17 07:56:26;;;;;;;11.63;5.50;;;9.20;92.30;;;;;;5033512;28;20060;-66
2022/04/17 07:58:52;;;;;;;11.80;5.87;;;9.30;91.40;;;;;;5039105;28;20123;-67
2022/04/17 08:01:17;;;;;;;12.93;5.90;;;9.40;90.00;;;;;;5014834;28;20308;-67
2022/04/17 08:06:15;;;;;;;10.82;5.10;;;9.50;89.80;;;;;;5015842;28;20120;-67
2022/04/17 08:08:42;;;;;;;9.63;6.10;;;9.70;88.00;;;;;;5029658;28;20038;-67
2022/04/17 08:11:08;;;;;;;9.98;5.13;;;9.80;87.40;;;;;;5022272;28;20128;-66
2022/04/17 08:13:35;;;;;;;9.25;4.72;;;9.80;86.40;;;;;;5031401;28;20354;-66
2022/04/17 08:16:04;;;;;;;8.52;4.93;;;9.90;85.40;;;;;;5006079;28;20037;-67
2022/04/17 08:18:33;;;;;;;7.72;4.43;;;10.10;85.00;;;;;;5029092;28;20029;-66
2022/04/17 08:21:00;;;;;;;8.65;4.80;;;10.10;81.70;;;;;;5005590;28;20115;-66
2022/04/17 08:23:25;;;;;;;;;;;10.30;80.00;;;;;;5003414;28;20068;-66
2022/04/17 08:25:51;;;;;;;8.65;4.78;;;10.40;71.00;;;;;;5020522;28;19975;-65
2022/04/17 08:28:16;;;;;;;9.90;4.73;;;10.40;75.00;;;;;;5010692;28;20049;-67
2022/04/17 08:30:42;;;;;;;8.00;4.83;;;10.50;73.80;;;;;;5028694;28;20029;-66
2022/04/17 08:33:08;;;;;;;8.97;4.43;;;10.60;70.20;;;;;;5026411;28;20060;-67
2022/04/17 08:35:34;;;;;;;8.55;4.40;;;10.60;70.60;;;;;;5027902;28;20044;-65
2022/04/17 08:38:00;;;;;;;10.73;4.45;;;10.80;70.20;;;;;;5038660;28;20056;-66
2022/04/17 08:40:27;;;;;;;6.17;4.07;;;10.80;67.90;;;;;;5025324;28;20051;-66
2022/04/17 08:42:53;;;;;;;9.63;4.35;;;10.90;66.80;;;;;;5045600;28;20041;-66
2022/04/17 08:45:20;;;;;;;9.38;5.25;;;11.10;67.50;;;;;;5018600;28;20053;-66
2022/04/17 08:47:46;;;;;;;9.05;4.57;;;11.10;66.10;;;;;;5038693;28;20071;-67
2022/04/17 08:50:16;;;;;;;7.70;4.35;;;11.30;65.40;;;;;;5020859;28;20048;-66
2022/04/17 08:52:46;;;;;;;7.80;4.45;;;11.30;63.70;;;;;;5012679;28;20033;-66
2022/04/17 08:55:12;;;;;;;8.82;4.72;;;11.40;64.90;;;;;;5036573;28;20446;-65
2022/04/17 08:57:38;;;;;;;9.77;4.25;;;11.50;63.80;;;;;;5035909;28;20065;-66
2022/04/17 09:00:05;;;;;;;9.40;4.70;;;11.60;63.60;;;;;;5038723;28;20061;-64
2022/04/17 09:02:31;;;;;;;7.45;4.68;;;11.70;63.10;;;;;;5016090;28;20056;-68
2022/04/17 09:04:57;;;;;;;7.33;4.53;;;11.80;63.70;;;;;;5024292;28;20048;-67
2022/04/17 09:07:22;;;;;;;10.13;4.45;;;11.90;63.10;;;;;;5044434;28;20041;-67
2022/04/17 09:09:50;;;;;;;8.30;4.63;;;12.10;62.70;;;;;;5030310;28;20521;-68
2022/04/17 09:12:26;;;;;;;8.30;4.85;;;12.20;62.20;;;;;;5024474;28;20052;-67
2022/04/17 09:14:56;;;;;;;8.32;4.57;;;12.30;62.00;;;;;;5041169;28;20044;-68
2022/04/17 09:17:32;;;;;;;8.15;5.10;;;12.40;62.00;;;;;;5018799;28;20595;-67
2022/04/17 09:19:58;;;;;;;9.85;5.22;;;12.50;60.20;;;;;;5016418;28;20470;-67
2022/04/17 09:22:25;;;;;;;8.43;4.78;;;12.60;60.80;;;;;;5034462;28;20055;-67
2022/04/17 09:24:51;;;;;;;9.40;4.15;;;12.70;59.50;;;;;;5031389;28;20639;-66
2022/04/17 09:27:17;;;;;;;7.00;4.25;;;12.80;57.20;;;;;;5039487;28;20521;-68
2022/04/17 09:29:43;;;;;;;5.85;3.50;;;12.80;58.10;;;;;;5039614;28;20033;-68
2022/04/17 09:32:13;;;;;;;9.77;4.07;;;13.00;58.30;;;;;;5043703;28;20125;-67
2022/04/17 09:34:44;;;;;;;8.52;4.15;;;13.10;58.00;;;;;;5040617;28;20133;-68
2022/04/17 09:37:23;;;;;;;7.07;3.92;;;13.30;57.80;;;;;;5036849;28;20091;-67
2022/04/17 09:39:52;;;;;;;9.05;4.18;;;13.40;55.00;;;;;;5047453;28;20460;-67
2022/04/17 09:42:22;;;;;;;6.55;3.70;;;13.50;55.70;;;;;;5026128;28;20151;-67
2022/04/17 09:44:54;;;;;;;7.63;4.13;;;13.60;55.90;;;;;;5017179;28;20124;-66
2022/04/17 09:47:29;;;;;;;7.05;3.92;;;13.80;56.20;;;;;;5035752;28;20060;-68
2022/04/17 09:49:56;;;;;;;6.05;3.38;;;13.90;56.00;;;;;;5022605;28;20494;-68
2022/04/17 09:52:25;;;;;;;8.75;3.63;;;14.00;55.10;;;;;;5024249;28;20071;-68
2022/04/17 09:54:52;;;;;;;6.72;3.78;;;14.10;54.60;;;;;;5051344;22;20128;-80
2022/04/17 09:57:37;;;;;;;7.05;3.75;;;14.30;53.50;;;;;;5005941;28;20037;-81
2022/04/17 10:00:21;;;;;;;9.95;4.45;;;14.40;53.30;;;;;;5028300;28;20044;-80
2022/04/17 10:02:48;;;;;;;8.05;3.80;;;14.50;52.90;;;;;;5016995;28;20035;-80
2022/04/17 10:05:16;;;;;;;5.68;3.85;;;14.60;52.50;;;;;;5005868;28;20037;-82
2022/04/17 10:07:44;;;;;;;6.30;4.15;;;14.60;53.60;;;;;;5005415;28;20034;-81
2022/04/17 10:10:14;;;;;;;5.53;3.83;;;14.70;53.60;;;;;;5006694;28;20034;-81
2022/04/17 10:12:44;;;;;;;6.32;3.97;;;14.90;52.20;;;;;;5015552;28;20491;-82
2022/04/17 10:15:11;;;;;;;4.90;3.70;;;15.00;52.10;;;;;;5005661;28;20083;-82
2022/04/17 10:17:39;;;;;;;7.22;4.18;;;15.10;50.40;;;;;;5018173;28;20025;-82
2022/04/17 10:20:08;;;;;;;8.30;3.70;;;15.10;50.50;;;;;;5006925;28;20287;-81
2022/04/17 10:22:38;;;;;;;5.63;3.10;;;15.20;50.50;;;;;;5016773;28;20223;-81
2022/04/17 10:25:06;;;;;;;10.15;3.85;;;15.40;50.90;;;;;;5010657;28;20114;-81
2022/04/17 10:27:42;;;;;;;5.07;3.47;;;15.40;49.20;;;;;;5009749;28;20033;-81
2022/04/17 10:30:12;;;;;;;6.78;4.13;;;15.50;50.20;;;;;;5006577;28;20044;-82
2022/04/17 10:33:01;;;;;;;7.32;4.13;;;15.60;50.20;;;;;;5010771;28;20123;-81
2022/04/17 10:35:40;;;;;;;4.70;3.17;;;15.80;49.80;;;;;;5008783;28;20059;-81
2022/04/17 10:38:24;;;;;;;6.97;3.60;;;15.90;49.50;;;;;;5014450;28;20033;-82
2022/04/17 10:40:53;;;;;;;5.20;3.22;;;15.90;49.20;;;;;;5008883;28;20287;-82
2022/04/17 10:43:22;;;;;;;8.45;3.92;;;16.10;49.20;;;;;;5011209;28;20171;-88
2022/04/17 10:46:29;;;;;;;4.30;3.05;;;16.20;47.90;;;;;;5011344;28;20041;-87
2022/04/17 10:55:22;;;;;;;7.57;3.80;;;16.30;47.90;;;;;;5054425;22;20368;-73
2022/04/17 10:57:48;;;;;;;8.75;4.10;;;16.30;48.20;;;;;;4993791;28;20513;-73
2022/04/17 11:00:36;;;;;;;7.55;4.10;;;16.30;49.50;;;;;;5027250;28;20033;-73
2022/04/17 11:03:08;;;;;;;;;;;16.40;49.40;;;;;;5010791;28;20122;-72
2022/04/17 11:08:25;;;;;;;6.75;3.92;;;16.40;48.70;;;;;;5028316;28;20038;-73
2022/04/17 11:10:54;;;;;;;7.75;3.70;;;16.50;49.30;;;;;;4993157;28;20045;-73
2022/04/17 11:13:21;;;;;;;7.10;3.50;;;16.50;48.70;;;;;;4993778;28;20485;-73
2022/04/17 11:15:55;;;;;;;6.10;3.50;;;16.60;48.50;;;;;;5027312;28;20033;-73
2022/04/17 11:18:26;;;;;;;9.50;4.00;;;16.70;47.60;;;;;;5026960;28;20511;-73
2022/04/17 11:20:53;;;;;;;6.82;4.28;;;16.80;48.00;;;;;;5027713;28;20126;-75
2022/04/17 11:23:47;;;;;;;5.82;3.67;;;16.80;48.10;;;;;;5009712;28;20050;-73
2022/04/17 11:26:12;;;;;;;7.55;3.28;;;17.00;47.80;;;;;;5009533;28;20132;-73
2022/04/17 11:28:38;;;;;;;5.15;3.45;;;17.10;48.30;;;;;;5027596;28;20124;-72
2022/04/17 11:31:04;;;;;;;5.75;3.60;;;17.20;47.80;;;;;;5027267;28;20103;-73
2022/04/17 11:33:30;;;;;;;5.75;3.55;;;17.30;47.50;;;;;;5027310;28;20517;-73
2022/04/17 11:35:59;;;;;;;6.03;3.03;;;17.40;47.60;;;;;;5009086;28;20045;-73
2022/04/17 11:38:26;;;;;;;7.22;2.88;;;17.50;47.30;;;;;;5009713;28;20175;-73
2022/04/17 11:40:52;;;;;;;4.63;3.10;;;17.50;46.60;;;;;;4992418;28;20045;-73
2022/04/17 11:43:19;;;;;;;5.20;3.28;;;17.60;46.10;;;;;;5020389;28;20049;-73
2022/04/17 11:45:46;;;;;;;8.40;3.22;;;17.80;46.00;;;;;;5047483;28;20499;-73
2022/04/17 11:48:16;;;;;;;5.07;3.42;;;17.80;45.20;;;;;;5004401;28;20046;-73
2022/04/17 11:50:42;;;;;;;4.78;2.90;;;17.80;45.00;;;;;;5011865;28;20025;-73
2022/04/17 11:53:16;;;;;;;5.00;3.22;;;17.90;44.60;;;;;;5022628;28;20049;-73
2022/04/17 11:55:43;;;;;;;5.38;3.22;;;18.00;44.30;;;;;;5008346;28;20231;-73
2022/04/17 11:58:11;;;;;;;6.65;3.70;;;18.10;44.40;;;;;;5026674;28;20045;-73
2022/04/17 12:00:37;;;;;;;5.20;3.45;;;18.20;43.90;;;;;;5007015;28;20124;-74
2022/04/17 12:03:05;;;;;;;7.53;3.22;;;18.20;43.90;;;;;;5016826;28;20111;-73
2022/04/17 12:05:32;;;;;;;8.57;3.28;;;18.40;43.60;;;;;;5008759;28;20110;-73
2022/04/17 12:08:06;;;;;;;6.50;3.13;;;18.50;43.20;;;;;;5009092;28;20041;-73
2022/04/17 12:10:35;;;;;;;6.47;3.78;;;18.50;43.40;;;;;;5008665;28;20049;-73
2022/04/17 12:13:14;;;;;;;5.30;3.42;;;18.60;43.40;;;;;;5008652;28;20049;-73
2022/04/17 12:15:39;;;;;;;5.78;2.97;;;18.70;42.50;;;;;;5008518;28;20041;-73
2022/04/17 12:18:05;;;;;;;4.68;2.90;;;18.80;42.80;;;;;;5008672;28;20568;-73
2022/04/17 12:20:31;;;;;;;6.00;3.22;;;18.80;42.50;;;;;;5008379;28;20494;-73
2022/04/17 12:22:56;;;;;;;4.25;2.78;;;18.90;42.80;;;;;;5009655;28;20041;-73
2022/04/17 12:25:25;;;;;;;4.47;2.80;;;18.90;41.90;;;;;;5009158;28;20046;-76
2022/04/17 12:27:53;;;;;;;5.28;3.10;;;19.00;42.00;;;;;;5009456;28;20167;-73
2022/04/17 12:30:24;;;;;;;7.10;3.85;;;19.00;41.50;;;;;;5008794;28;20072;-74
2022/04/17 12:32:50;;;;;;;3.80;2.53;;;19.10;41.20;;;;;;5009424;28;20506;-74
2022/04/17 12:35:32;;;;;;;4.88;2.55;;;19.20;41.10;;;;;;5009504;28;20060;-74
2022/04/17 12:38:10;;;;;;;4.90;2.65;;;19.30;40.90;;;;;;5009134;28;20049;-74
2022/04/17 12:40:42;;;;;;;5.68;3.75;;;19.30;39.80;;;;;;5008559;28;20379;-74
2022/04/17 12:43:15;;;;;;;4.20;2.35;;;19.40;40.50;;;;;;5026320;28;20405;-73
2022/04/17 12:45:55;;;;;;;3.63;2.60;;;19.50;40.30;;;;;;5009102;28;20541;-74
2022/04/17 12:48:30;;;;;;;4.10;2.53;;;19.60;39.90;;;;;;5012009;28;20171;-74
2022/04/17 12:51:03;;;;;;;5.80;3.20;;;19.60;39.30;;;;;;5003244;28;20033;-73
2022/04/17 12:53:42;;;;;;;4.47;2.60;;;19.60;39.80;;;;;;5013172;28;20358;-74
2022/04/17 12:56:10;;;;;;;4.80;2.90;;;19.70;39.20;;;;;;5012255;28;20041;-73
2022/04/17 12:58:56;;;;;;;4.13;2.50;;;19.70;39.10;;;;;;4998075;28;20038;-73
2022/04/17 13:01:24;;;;;;;3.83;2.63;;;19.70;38.10;;;;;;5012506;28;20609;-74
2022/04/17 13:03:50;;;;;;;4.82;2.90;;;19.70;39.80;;;;;;5030010;28;20045;-74
2022/04/17 13:06:22;;;;;;;5.50;2.80;;;19.70;38.90;;;;;;5012358;28;20069;-73
2022/04/17 13:09:07;;;;;;;4.90;2.75;;;19.80;38.20;;;;;;5012386;28;20045;-74
2022/04/17 13:11:34;;;;;;;5.15;3.00;;;19.80;38.00;;;;;;5012725;28;20065;-74
2022/04/17 13:14:03;;;;;;;4.53;2.40;;;19.90;38.80;;;;;;4995954;28;20044;-74
2022/04/17 13:16:33;;;;;;;4.28;2.47;;;20.00;38.10;;;;;;5023889;28;20044;-73
2022/04/17 13:18:59;;;;;;;4.10;2.63;;;20.00;38.10;;;;;;5032068;28;20182;-73
2022/04/17 13:21:26;;;;;;;4.30;2.72;;;20.10;37.70;;;;;;5012444;28;20406;-73
2022/04/17 13:23:52;;;;;;;4.07;2.75;;;20.10;37.60;;;;;;5012397;28;20549;-74
2022/04/17 13:26:19;;;;;;;3.35;2.42;;;20.20;37.80;;;;;;5014261;28;20120;-73
2022/04/17 13:28:45;;;;;;;4.80;2.45;;;20.30;38.10;;;;;;5030176;28;20041;-74
2022/04/17 13:31:11;;;;;;;4.00;2.72;;;20.30;37.80;;;;;;5011640;28;20049;-73